Time;durP1;ratioP1;P1;durP2;ratioP2;P2;SDS_P1;SDS_P2;PMS_P1;PMS_P2;Temp;Humidity;BMP_temperature;BMP_pressure;BME280_temperature;BME280_humidity;BME280_pressure;Samples;Min_cycle;Max_cycle;Signal;HPM_P1;HPM_P2
2022/04/03 00:01:26;;;;;;;5.77;3.73;;;-0.40;99.90;;;;;;5050184;28;20208;-86
2022/04/03 00:03:53;;;;;;;8.07;3.73;;;-0.40;99.90;;;;;;5052931;28;20208;-87
2022/04/03 00:06:21;;;;;;;6.23;3.77;;;-0.40;99.90;;;;;;5052130;28;20308;-87
2022/04/03 00:08:49;;;;;;;4.77;3.70;;;-0.40;99.90;;;;;;5057174;28;20267;-87
2022/04/03 00:11:16;;;;;;;7.30;3.80;;;-0.50;99.90;;;;;;5051375;28;20204;-89
2022/04/03 00:13:43;;;;;;;7.97;4.10;;;-0.50;99.90;;;;;;5069579;28;20223;-86
2022/04/03 00:16:11;;;;;;;7.10;3.43;;;-0.50;99.90;;;;;;5066044;28;20196;-84
2022/04/03 00:18:38;;;;;;;11.53;4.23;;;-0.50;99.90;;;;;;5070190;28;20248;-87
2022/04/03 00:21:05;;;;;;;6.63;3.80;;;-0.50;99.90;;;;;;5053456;28;20216;-88
2022/04/03 00:23:32;;;;;;;5.87;3.90;;;-0.50;99.90;;;;;;5056744;28;20248;-89
2022/04/03 00:26:00;;;;;;;7.00;3.63;;;-0.50;99.90;;;;;;5059838;28;20225;-88
2022/04/03 00:28:28;;;;;;;6.37;4.20;;;-0.50;99.90;;;;;;5048853;28;20652;-88
2022/04/03 00:30:56;;;;;;;6.10;3.87;;;-0.60;99.90;;;;;;5064819;28;20256;-85
2022/04/03 00:33:23;;;;;;;6.97;3.47;;;-0.60;99.90;;;;;;5065560;28;20853;-90
2022/04/03 00:35:51;;;;;;;4.43;3.47;;;-0.60;99.90;;;;;;5054243;28;20208;-88
2022/04/03 00:38:18;;;;;;;12.70;3.70;;;-0.60;99.90;;;;;;5079692;28;20228;-88
2022/04/03 00:40:47;;;;;;;8.23;3.70;;;-0.70;99.90;;;;;;5082471;28;20209;-87
2022/04/03 00:43:14;;;;;;;4.93;3.70;;;-0.60;99.90;;;;;;5069449;28;20200;-88
2022/04/03 00:45:45;;;;;;;6.07;4.00;;;-0.70;99.90;;;;;;5063214;28;20527;-86
2022/04/03 00:48:13;;;;;;;7.87;3.60;;;-0.70;99.90;;;;;;5069962;28;20197;-87
2022/04/03 00:50:42;;;;;;;5.90;3.63;;;-0.70;99.90;;;;;;5066806;28;20257;-89
2022/04/03 00:53:10;;;;;;;5.00;3.33;;;-0.80;99.90;;;;;;5067729;28;20224;-86
2022/04/03 00:55:41;;;;;;;5.30;3.33;;;-0.70;99.90;;;;;;5061408;28;20216;-87
2022/04/03 00:58:10;;;;;;;12.87;3.87;;;-0.70;99.90;;;;;;5054112;28;20255;-87
2022/04/03 01:00:38;;;;;;;5.73;3.73;;;-0.70;99.90;;;;;;5068603;28;20393;-86
2022/04/03 01:03:06;;;;;;;5.17;3.70;;;-0.70;99.90;;;;;;5068346;28;20300;-88
2022/04/03 01:05:33;;;;;;;5.10;3.17;;;-0.80;99.90;;;;;;5075923;28;20212;-88
2022/04/03 01:08:01;;;;;;;9.53;3.50;;;-0.80;99.90;;;;;;5066266;28;20910;-89
2022/04/03 01:10:28;;;;;;;7.53;3.73;;;-0.80;99.90;;;;;;5081171;28;20188;-87
2022/04/03 01:12:55;;;;;;;4.27;3.27;;;-0.80;99.90;;;;;;5066593;28;20712;-87
2022/04/03 01:16:24;;;;;;;7.30;3.38;;;-0.80;99.90;;;;;;5029704;27;2668861;-84
2022/04/03 01:18:53;;;;;;;7.93;3.80;;;-0.90;99.90;;;;;;5107435;28;20199;-85
2022/04/03 01:21:21;;;;;;;4.50;3.17;;;-0.90;99.90;;;;;;5082741;28;20220;-84
2022/04/03 01:23:51;;;;;;;5.43;3.43;;;-0.90;99.90;;;;;;5085029;28;20319;-85
2022/04/03 01:26:18;;;;;;;12.67;3.63;;;-0.90;99.90;;;;;;5071637;28;20219;-84
2022/04/03 01:28:46;;;;;;;5.20;3.10;;;-0.90;99.90;;;;;;5069226;28;20192;-85
2022/04/03 01:31:14;;;;;;;5.30;3.30;;;-0.90;99.90;;;;;;5087847;28;20211;-85
2022/04/03 01:33:41;;;;;;;5.50;3.67;;;-0.90;99.90;;;;;;5085339;28;20223;-85
2022/04/03 01:36:09;;;;;;;7.40;2.80;;;-0.90;99.90;;;;;;5066622;28;20235;-86
2022/04/03 01:38:36;;;;;;;8.03;3.10;;;-0.90;99.90;;;;;;5054606;28;20677;-84
2022/04/03 01:41:04;;;;;;;5.23;3.90;;;-0.90;99.90;;;;;;5068434;28;20649;-84
2022/04/03 01:43:31;;;;;;;6.00;3.03;;;-0.90;99.90;;;;;;5077712;28;20228;-85
2022/04/03 01:45:58;;;;;;;8.20;3.40;;;-0.90;99.90;;;;;;5066980;28;20196;-87
2022/04/03 01:48:26;;;;;;;4.03;2.97;;;-0.90;99.90;;;;;;5062005;28;20251;-84
2022/04/03 01:50:53;;;;;;;4.57;3.00;;;-0.90;99.90;;;;;;5069395;28;20211;-84
2022/04/03 01:53:25;;;;;;;5.83;3.20;;;-0.90;99.90;;;;;;5071169;28;20544;-86
2022/04/03 01:56:00;;;;;;;4.80;3.47;;;-0.90;99.90;;;;;;5068469;28;20228;-84
2022/04/03 01:58:27;;;;;;;8.00;3.53;;;-0.90;99.90;;;;;;5064764;28;20241;-85
2022/04/03 02:00:54;;;;;;;6.50;2.93;;;-1.00;99.90;;;;;;5070025;28;20212;-86
2022/04/03 02:03:23;;;;;;;3.40;3.03;;;-1.00;99.90;;;;;;5082650;28;20204;-85
2022/04/03 02:05:50;;;;;;;4.93;3.23;;;-1.00;99.90;;;;;;5081494;28;20686;-85
2022/04/03 02:08:18;;;;;;;8.23;3.57;;;-1.00;99.90;;;;;;5068500;28;20241;-85
2022/04/03 02:10:45;;;;;;;4.40;2.70;;;-0.90;99.90;;;;;;5087443;28;20211;-86
2022/04/03 02:13:12;;;;;;;8.47;3.43;;;-1.00;99.90;;;;;;5105928;28;20240;-85
2022/04/03 02:15:41;;;;;;;5.77;3.40;;;-1.00;99.90;;;;;;5076369;28;20302;-84
2022/04/03 02:18:12;;;;;;;7.60;3.30;;;-0.90;99.90;;;;;;5068890;28;20827;-85
2022/04/03 02:20:42;;;;;;;7.13;3.50;;;-1.00;99.90;;;;;;5070539;28;20635;-87
2022/04/03 02:23:11;;;;;;;6.13;3.57;;;-0.80;99.90;;;;;;5078571;28;20282;-85
2022/04/03 02:25:38;;;;;;;6.97;3.80;;;-0.80;99.90;;;;;;5067824;28;20212;-86
2022/04/03 02:28:09;;;;;;;6.30;3.50;;;-0.70;99.90;;;;;;5053108;28;20216;-85
2022/04/03 02:30:37;;;;;;;4.73;3.50;;;-0.60;99.90;;;;;;5063386;28;20201;-84
2022/04/03 02:33:05;;;;;;;6.03;3.27;;;-0.50;99.90;;;;;;5042283;28;20206;-86
2022/04/03 02:35:33;;;;;;;8.13;3.47;;;-0.40;99.90;;;;;;5045151;28;20229;-86
2022/04/03 02:38:01;;;;;;;4.10;3.10;;;-0.40;99.90;;;;;;5057428;28;20323;-86
2022/04/03 02:40:28;;;;;;;6.13;3.83;;;-0.30;99.90;;;;;;5058317;28;20208;-86
2022/04/03 02:42:55;;;;;;;6.40;3.43;;;-0.20;99.90;;;;;;5067048;28;20605;-86
2022/04/03 02:45:23;;;;;;;7.83;3.57;;;-0.10;99.90;;;;;;5039298;28;20198;-88
2022/04/03 02:47:53;;;;;;;3.73;3.13;;;-0.10;99.90;;;;;;5055666;28;20215;-86
2022/04/03 02:50:25;;;;;;;8.03;3.33;;;0.00;99.90;;;;;;5041981;28;20209;-85
2022/04/03 02:53:00;;;;;;;5.80;3.30;;;0.10;99.90;;;;;;5049457;28;20296;-85
2022/04/03 02:55:27;;;;;;;7.90;3.70;;;0.10;99.90;;;;;;5054225;28;20232;-86
2022/04/03 02:57:56;;;;;;;7.50;3.30;;;0.20;99.90;;;;;;5052367;28;20656;-84
2022/04/03 03:00:24;;;;;;;5.17;3.70;;;0.30;99.90;;;;;;5048700;28;20304;-86
2022/04/03 03:03:04;;;;;;;4.80;3.27;;;0.30;99.90;;;;;;5052693;28;20309;-86
2022/04/03 03:05:41;;;;;;;10.30;3.10;;;0.30;99.90;;;;;;5060657;28;20297;-85
2022/04/03 03:08:09;;;;;;;4.57;3.10;;;0.40;99.90;;;;;;5064499;28;20220;-85
2022/04/03 03:10:37;;;;;;;5.17;3.00;;;0.40;99.90;;;;;;5068493;28;20215;-86
2022/04/03 03:13:12;;;;;;;5.03;3.33;;;0.40;99.90;;;;;;5065224;28;20216;-87
2022/04/03 03:15:40;;;;;;;7.10;2.90;;;0.40;99.90;;;;;;5054431;28;20240;-86
2022/04/03 03:18:22;;;;;;;5.37;2.90;;;0.40;99.90;;;;;;5056507;28;20206;-84
2022/04/03 03:20:51;;;;;;;4.97;2.97;;;0.50;99.90;;;;;;5055188;28;20202;-88
2022/04/03 03:23:18;;;;;;;4.37;3.00;;;0.40;99.90;;;;;;5052025;28;20222;-86
2022/04/03 03:25:48;;;;;;;5.70;3.37;;;0.40;99.90;;;;;;5050575;28;20202;-85
2022/04/03 03:28:17;;;;;;;6.03;3.50;;;0.40;99.90;;;;;;5053622;28;20212;-86
2022/04/03 03:30:45;;;;;;;4.50;3.53;;;0.50;99.90;;;;;;5062792;28;20272;-87
2022/04/03 03:33:23;;;;;;;4.43;3.10;;;0.50;99.90;;;;;;5053201;28;20206;-86
2022/04/03 03:35:56;;;;;;;7.93;3.23;;;0.50;99.90;;;;;;5064995;28;20215;-86
2022/04/03 03:38:24;;;;;;;4.37;2.80;;;0.70;99.90;;;;;;5060927;28;20202;-87
2022/04/03 03:40:51;;;;;;;3.87;2.60;;;0.60;99.90;;;;;;5050018;28;20199;-86
2022/04/03 03:43:18;;;;;;;8.27;3.50;;;0.60;99.90;;;;;;5065170;28;20230;-86
2022/04/03 03:45:47;;;;;;;7.03;3.43;;;0.70;99.90;;;;;;5068129;28;20265;-86
2022/04/03 03:48:15;;;;;;;5.53;3.77;;;0.80;99.90;;;;;;5065483;28;20207;-86
2022/04/03 03:50:44;;;;;;;8.33;3.70;;;0.80;99.90;;;;;;5062048;28;20211;-86
2022/04/03 03:53:12;;;;;;;9.37;4.97;;;0.90;99.90;;;;;;5068876;28;20229;-84
2022/04/03 03:55:41;;;;;;;13.33;6.33;;;0.90;99.90;;;;;;5065544;28;20228;-86
2022/04/03 03:58:11;;;;;;;11.43;6.77;;;0.90;99.90;;;;;;5065074;28;20204;-86
2022/04/03 04:00:38;;;;;;;13.33;8.07;;;1.00;99.90;;;;;;5055626;28;20212;-85
2022/04/03 04:03:06;;;;;;;14.03;8.83;;;1.00;99.90;;;;;;5053407;28;20213;-87
2022/04/03 04:05:33;;;;;;;12.87;7.63;;;1.10;99.90;;;;;;5062704;28;20225;-86
2022/04/03 04:08:02;;;;;;;12.03;7.60;;;1.10;99.90;;;;;;5064994;28;20217;-86
2022/04/03 04:10:30;;;;;;;11.33;7.17;;;1.20;99.90;;;;;;5056347;28;20627;-86
2022/04/03 04:13:00;;;;;;;8.13;5.57;;;1.20;99.90;;;;;;5051543;28;20203;-87
2022/04/03 04:15:28;;;;;;;12.97;5.13;;;1.30;99.90;;;;;;5067420;28;20227;-87
2022/04/03 04:17:55;;;;;;;6.03;4.67;;;1.30;99.90;;;;;;5053146;28;20207;-84
2022/04/03 04:20:23;;;;;;;7.63;3.80;;;1.30;99.90;;;;;;5063296;28;20207;-87
2022/04/03 04:22:53;;;;;;;7.93;4.33;;;1.40;99.90;;;;;;5060848;28;20226;-86
2022/04/03 04:25:22;;;;;;;6.77;4.40;;;1.40;99.90;;;;;;5067521;28;20239;-86
2022/04/03 04:27:49;;;;;;;6.27;3.70;;;1.50;99.90;;;;;;5069791;28;20209;-87
2022/04/03 04:30:18;;;;;;;6.43;3.33;;;1.50;99.90;;;;;;5070593;28;20205;-86
2022/04/03 04:32:46;;;;;;;8.60;3.60;;;1.50;99.90;;;;;;5058023;28;20204;-87
2022/04/03 04:35:19;;;;;;;9.00;3.63;;;1.50;99.90;;;;;;5073331;28;20225;-86
2022/04/03 04:37:51;;;;;;;3.80;3.07;;;1.60;99.90;;;;;;5070895;28;20239;-87
2022/04/03 04:40:19;;;;;;;5.90;3.20;;;1.70;99.90;;;;;;5055468;28;20195;-87
2022/04/03 04:42:51;;;;;;;4.77;2.90;;;1.80;99.90;;;;;;5070999;28;20196;-88
2022/04/03 04:45:22;;;;;;;7.97;3.77;;;1.70;99.90;;;;;;5073775;28;20218;-87
2022/04/03 04:48:01;;;;;;;5.87;3.43;;;1.70;99.90;;;;;;5076791;28;20181;-87
2022/04/03 04:50:42;;;;;;;4.03;3.10;;;1.70;99.90;;;;;;5068431;28;20203;-86
2022/04/03 04:53:12;;;;;;;7.53;3.07;;;1.80;99.90;;;;;;5076777;28;20177;-87
2022/04/03 04:55:46;;;;;;;4.73;2.63;;;1.90;99.90;;;;;;5069324;28;20228;-87
2022/04/03 04:58:14;;;;;;;6.37;2.83;;;1.90;99.90;;;;;;5055290;28;20329;-84
2022/04/03 05:00:43;;;;;;;3.70;2.87;;;1.90;99.90;;;;;;5063607;28;20182;-87
2022/04/03 05:03:10;;;;;;;7.67;3.20;;;2.00;99.90;;;;;;5060008;28;20248;-86
2022/04/03 05:05:37;;;;;;;6.97;2.80;;;2.00;99.90;;;;;;5054715;28;20197;-87
2022/04/03 05:08:06;;;;;;;4.80;2.83;;;2.00;99.90;;;;;;5061603;28;20217;-87
2022/04/03 05:10:34;;;;;;;4.87;2.70;;;2.10;99.90;;;;;;5058052;28;20265;-86
2022/04/03 05:13:03;;;;;;;4.93;2.57;;;2.00;99.90;;;;;;5056595;28;20202;-87
2022/04/03 05:15:30;;;;;;;5.97;2.20;;;2.10;99.90;;;;;;5069577;28;20212;-87
2022/04/03 05:18:01;;;;;;;4.17;2.53;;;2.10;99.90;;;;;;5066991;28;20205;-87
2022/04/03 05:20:29;;;;;;;5.87;2.40;;;2.10;99.90;;;;;;5064122;28;20586;-87
2022/04/03 05:22:56;;;;;;;5.13;2.63;;;2.10;99.90;;;;;;5066498;28;20271;-87
2022/04/03 05:25:23;;;;;;;5.37;2.40;;;2.10;99.90;;;;;;5076225;28;20189;-87
2022/04/03 05:27:53;;;;;;;2.93;2.47;;;2.10;99.90;;;;;;5077047;28;20189;-88
2022/04/03 05:30:20;;;;;;;3.80;2.57;;;2.00;99.90;;;;;;5075042;28;20329;-88
2022/04/03 05:32:49;;;;;;;4.17;3.00;;;2.00;99.90;;;;;;5074068;28;20194;-92
2022/04/03 05:35:18;;;;;;;4.07;2.70;;;2.10;99.90;;;;;;5074020;28;20296;-88
2022/04/03 05:37:45;;;;;;;5.63;2.70;;;2.10;99.90;;;;;;5057201;28;20216;-88
2022/04/03 05:40:15;;;;;;;4.47;2.53;;;2.10;99.90;;;;;;5054331;28;20318;-88
2022/04/03 05:42:43;;;;;;;3.53;2.33;;;2.10;99.90;;;;;;5074733;28;20205;-86
2022/04/03 05:45:11;;;;;;;5.17;2.53;;;2.10;99.90;;;;;;5061562;28;20203;-87
2022/04/03 05:47:42;;;;;;;3.23;2.50;;;2.20;99.90;;;;;;5051302;28;20217;-88
2022/04/03 05:50:11;;;;;;;3.30;2.50;;;2.20;99.90;;;;;;5065304;28;20213;-86
2022/04/03 05:52:48;;;;;;;3.20;2.23;;;2.10;99.90;;;;;;5067032;28;20229;-87
2022/04/03 05:55:18;;;;;;;5.17;2.87;;;2.10;99.90;;;;;;5064550;28;20208;-85
2022/04/03 05:57:46;;;;;;;5.80;2.43;;;2.00;99.90;;;;;;5069586;28;20184;-86
2022/04/03 06:00:15;;;;;;;5.40;2.90;;;2.00;99.90;;;;;;5087900;28;20211;-87
2022/04/03 06:02:51;;;;;;;10.20;2.83;;;1.90;99.90;;;;;;5078085;28;20192;-88
2022/04/03 06:05:21;;;;;;;4.33;2.63;;;1.90;99.90;;;;;;5068741;28;20180;-87
2022/04/03 06:07:50;;;;;;;3.37;2.40;;;1.90;99.90;;;;;;5073928;28;20272;-84
2022/04/03 06:10:19;;;;;;;4.33;2.40;;;1.90;99.90;;;;;;5078762;28;20251;-88
2022/04/03 06:13:02;;;;;;;4.70;2.30;;;1.90;99.90;;;;;;5078458;28;20192;-87
2022/04/03 06:15:43;;;;;;;6.50;2.90;;;1.90;99.90;;;;;;5068941;28;20300;-88
2022/04/03 06:18:14;;;;;;;2.90;2.60;;;1.90;99.90;;;;;;5064545;28;20203;-89
2022/04/03 06:20:42;;;;;;;2.87;2.47;;;1.90;99.90;;;;;;5066061;28;20197;-89
2022/04/03 06:23:16;;;;;;;3.40;2.27;;;2.00;99.90;;;;;;5068361;28;20236;-89
2022/04/03 06:26:02;;;;;;;4.20;2.13;;;2.00;99.90;;;;;;5061711;28;20212;-90
2022/04/03 06:28:33;;;;;;;2.80;2.33;;;2.00;99.90;;;;;;5066394;28;20208;-90
2022/04/03 06:31:04;;;;;;;2.97;2.23;;;2.10;99.90;;;;;;5068548;28;20202;-87
2022/04/03 06:33:36;;;;;;;4.60;2.27;;;2.10;99.90;;;;;;5062263;28;20205;-88
2022/04/03 06:36:06;;;;;;;4.03;2.53;;;2.10;99.90;;;;;;5068453;28;20221;-87
2022/04/03 06:38:42;;;;;;;5.53;2.30;;;2.20;99.90;;;;;;5069623;28;20209;-89
2022/04/03 06:41:11;;;;;;;3.20;2.27;;;2.30;99.90;;;;;;5061567;28;20258;-88
2022/04/03 06:43:39;;;;;;;4.77;2.70;;;2.40;99.90;;;;;;5055942;28;20290;-88
2022/04/03 06:46:11;;;;;;;5.93;2.63;;;2.40;99.90;;;;;;5059773;28;20205;-88
2022/04/03 06:48:45;;;;;;;5.13;2.30;;;2.50;99.90;;;;;;5069067;28;20224;-87
2022/04/03 06:51:22;;;;;;;2.80;2.30;;;2.60;99.90;;;;;;5068466;28;20267;-88
2022/04/03 06:53:54;;;;;;;6.87;2.90;;;2.70;99.90;;;;;;5068494;28;20211;-88
2022/04/03 06:56:27;;;;;;;6.40;2.97;;;2.80;99.90;;;;;;5072814;28;20233;-89
2022/04/03 06:59:01;;;;;;;3.67;2.50;;;3.00;99.90;;;;;;5074965;28;20187;-90
2022/04/03 07:01:43;;;;;;;2.60;2.03;;;3.80;99.90;;;;;;5069506;28;20228;-88
2022/04/03 07:04:13;;;;;;;6.50;2.40;;;5.00;99.90;;;;;;5068799;28;20185;-89
2022/04/03 07:06:45;;;;;;;3.13;1.73;;;6.20;99.90;;;;;;5065497;28;20193;-89
2022/04/03 07:09:13;;;;;;;3.00;1.97;;;7.30;99.90;;;;;;5074367;28;20214;-90
2022/04/03 07:11:44;;;;;;;2.37;1.70;;;8.30;99.90;;;;;;5069803;28;20202;-89
2022/04/03 07:14:20;;;;;;;4.13;1.53;;;9.10;99.90;;;;;;5075729;28;20195;-89
2022/04/03 07:16:48;;;;;;;1.70;1.60;;;9.50;99.90;;;;;;5069599;28;20303;-90
2022/04/03 07:19:20;;;;;;;1.77;1.60;;;9.50;99.90;;;;;;5069460;28;20195;-91
2022/04/03 07:21:50;;;;;;;1.40;1.27;;;9.50;99.90;;;;;;5060369;28;20224;-88
2022/04/03 07:24:40;;;;;;;3.47;1.70;;;9.70;99.90;;;;;;5062033;28;20729;-90
2022/04/03 07:27:12;;;;;;;3.93;1.57;;;9.80;99.90;;;;;;5066196;28;20209;-87
2022/04/03 07:29:42;;;;;;;4.13;1.70;;;9.90;99.90;;;;;;5053673;28;20217;-90
2022/04/03 07:32:23;;;;;;;5.93;1.73;;;10.40;99.90;;;;;;5046616;28;20218;-90
2022/04/03 07:34:58;;;;;;;1.47;1.30;;;10.50;99.90;;;;;;5061024;28;20213;-89
2022/04/03 07:37:27;;;;;;;1.60;1.50;;;10.60;99.90;;;;;;5051095;28;20216;-87
2022/04/03 07:39:58;;;;;;;2.57;1.60;;;10.90;99.90;;;;;;5065946;28;20205;-90
2022/04/03 07:42:30;;;;;;;3.20;1.70;;;11.60;99.90;;;;;;5066393;28;20205;-89
2022/04/03 07:45:01;;;;;;;2.87;1.50;;;12.20;99.90;;;;;;5066073;28;20198;-86
2022/04/03 07:47:31;;;;;;;3.43;1.30;;;13.10;99.90;;;;;;5064823;28;20209;-89
2022/04/03 07:49:59;;;;;;;1.23;1.10;;;13.40;99.90;;;;;;5064177;28;20211;-90
2022/04/03 07:52:26;;;;;;;3.73;1.47;;;13.90;99.90;;;;;;5069639;28;20225;-90
2022/04/03 07:54:55;;;;;;;1.23;1.00;;;14.60;99.90;;;;;;5066634;28;20199;-88
2022/04/03 07:57:24;;;;;;;2.25;1.20;;;13.90;99.90;;;;;;5067815;28;20232;-88
2022/04/03 07:59:52;;;;;;;1.70;1.10;;;14.70;99.90;;;;;;5067164;28;20200;-88
2022/04/03 08:02:20;;;;;;;5.57;1.60;;;14.70;99.90;;;;;;5067021;28;20205;-87
2022/04/03 08:04:48;;;;;;;1.27;1.00;;;15.00;99.90;;;;;;5069915;28;20197;-89
2022/04/03 08:07:18;;;;;;;2.45;0.90;;;14.60;99.70;;;;;;5069743;28;20229;-89
2022/04/03 08:09:46;;;;;;;1.48;1.00;;;14.40;98.70;;;;;;5068410;28;20197;-91
2022/04/03 08:12:14;;;;;;;1.63;0.93;;;15.00;99.20;;;;;;5069094;28;20235;-90
2022/04/03 08:14:41;;;;;;;3.00;1.30;;;14.70;98.80;;;;;;5045646;23;20236;-88
2022/04/03 08:17:09;;;;;;;2.42;1.13;;;15.00;97.60;;;;;;5022496;28;20227;-90
2022/04/03 08:19:36;;;;;;;1.52;1.13;;;14.80;96.60;;;;;;5013242;28;20226;-86
2022/04/03 08:22:03;;;;;;;1.40;0.98;;;15.20;96.20;;;;;;5003026;28;20210;-87
2022/04/03 08:24:30;;;;;;;4.63;1.13;;;15.30;95.90;;;;;;5014197;28;20209;-89
2022/04/03 08:26:57;;;;;;;3.40;1.20;;;14.90;95.50;;;;;;5006270;28;20203;-88
2022/04/03 08:29:27;;;;;;;1.50;0.95;;;15.20;94.90;;;;;;5007494;28;20282;-88
2022/04/03 08:31:58;;;;;;;1.65;0.90;;;14.80;94.40;;;;;;5015740;28;20207;-89
2022/04/03 08:34:27;;;;;;;2.97;1.00;;;15.70;94.80;;;;;;5020736;28;20617;-91
2022/04/03 08:37:09;;;;;;;2.80;1.25;;;14.90;94.30;;;;;;5006103;28;20233;-89
2022/04/03 08:39:36;;;;;;;3.58;1.25;;;14.50;94.20;;;;;;5013069;28;20230;-87
2022/04/03 08:42:03;;;;;;;1.40;1.20;;;15.00;93.30;;;;;;5011205;28;20213;-88
2022/04/03 08:44:30;;;;;;;1.90;1.52;;;14.60;93.70;;;;;;4999663;28;20253;-89
2022/04/03 08:47:01;;;;;;;1.52;1.15;;;14.80;94.20;;;;;;4999371;28;20253;-87
2022/04/03 08:49:32;;;;;;;2.85;1.40;;;14.80;93.20;;;;;;5006095;28;20794;-89
2022/04/03 08:52:00;;;;;;;1.48;0.88;;;14.70;93.00;;;;;;5006827;28;20215;-87
2022/04/03 08:54:28;;;;;;;1.85;1.23;;;14.20;94.20;;;;;;5001775;28;20210;-88
2022/04/03 08:56:55;;;;;;;4.47;1.83;;;12.90;93.30;;;;;;5001026;28;20258;-85
2022/04/03 08:59:21;;;;;;;3.27;1.77;;;12.10;94.20;;;;;;5000287;28;20556;-82
2022/04/03 09:01:50;;;;;;;3.43;2.17;;;11.60;95.40;;;;;;5016329;28;20230;-91
2022/04/03 09:04:30;;;;;;;4.17;1.60;;;11.20;96.40;;;;;;5002219;28;20307;-89
2022/04/03 09:07:01;;;;;;;2.23;1.80;;;11.00;96.40;;;;;;5013371;28;20218;-91
2022/04/03 09:09:30;;;;;;;3.50;1.97;;;10.90;96.70;;;;;;4987534;28;20305;-89
2022/04/03 09:12:17;;;;;;;4.03;1.80;;;11.00;97.30;;;;;;5014428;28;20233;-89
2022/04/03 09:14:55;;;;;;;2.40;1.43;;;10.90;97.90;;;;;;5017267;28;20266;-90
2022/04/03 09:17:44;;;;;;;3.03;1.50;;;10.80;97.60;;;;;;5031008;28;20325;-91
2022/04/03 09:20:15;;;;;;;1.53;1.37;;;10.50;97.80;;;;;;5017346;28;20393;-90
2022/04/03 09:22:45;;;;;;;2.10;1.20;;;10.10;98.70;;;;;;5017630;28;20225;-91
2022/04/03 09:25:14;;;;;;;2.77;1.57;;;9.80;99.40;;;;;;5016788;28;20273;-89
2022/04/03 09:28:01;;;;;;;1.80;1.30;;;9.60;99.90;;;;;;5012643;28;20276;-89
2022/04/03 09:30:39;;;;;;;2.10;1.20;;;10.00;99.90;;;;;;5006847;28;20218;-90
2022/04/03 09:33:11;;;;;;;2.43;1.43;;;10.20;99.90;;;;;;5024013;28;20217;-88
2022/04/03 09:35:58;;;;;;;4.00;1.70;;;10.50;99.90;;;;;;5007215;28;20220;-90
2022/04/03 09:38:27;;;;;;;4.30;1.63;;;10.60;99.70;;;;;;5027818;28;20267;-90
2022/04/03 09:40:56;;;;;;;1.90;1.53;;;10.80;99.90;;;;;;5010744;28;20211;-89
2022/04/03 09:43:27;;;;;;;2.23;1.83;;;11.00;99.90;;;;;;5019803;28;20718;-89
2022/04/03 09:45:59;;;;;;;3.07;1.90;;;11.30;99.90;;;;;;5015007;28;20288;-89
2022/04/03 09:48:27;;;;;;;4.73;2.30;;;11.40;99.70;;;;;;5013681;28;20222;-89
2022/04/03 09:51:03;;;;;;;3.07;1.83;;;11.50;99.90;;;;;;5016300;28;20206;-88
2022/04/03 09:53:52;;;;;;;2.70;1.90;;;11.60;99.80;;;;;;5013391;28;20235;-90
2022/04/03 09:56:23;;;;;;;4.23;2.10;;;11.60;99.90;;;;;;5006717;28;20198;-88
2022/04/03 09:58:50;;;;;;;3.97;1.40;;;11.10;99.90;;;;;;5010120;28;20213;-88
2022/04/03 10:01:43;;;;;;;1.63;0.83;;;10.70;99.90;;;;;;5018227;28;20564;-87
2022/04/03 10:04:14;;;;;;;1.93;1.10;;;10.20;99.90;;;;;;5012717;28;20278;-89
2022/04/03 10:06:47;;;;;;;1.27;0.90;;;9.90;99.90;;;;;;5023730;28;20280;-88
2022/04/03 10:09:17;;;;;;;1.70;1.00;;;9.80;99.90;;;;;;5011935;28;20210;-88
2022/04/03 10:11:44;;;;;;;1.53;0.90;;;9.90;99.90;;;;;;5012528;28;20253;-88
2022/04/03 10:14:12;;;;;;;1.43;1.00;;;10.10;99.90;;;;;;5025018;28;20248;-89
2022/04/03 10:16:39;;;;;;;3.47;1.80;;;10.20;99.90;;;;;;5014319;28;20242;-89
2022/04/03 10:19:07;;;;;;;1.57;1.00;;;10.30;99.90;;;;;;5009013;28;20220;-89
2022/04/03 10:21:40;;;;;;;2.13;1.20;;;10.40;99.90;;;;;;5009681;28;20330;-87
2022/04/03 10:24:20;;;;;;;1.23;1.00;;;10.50;99.90;;;;;;5013233;28;20273;-88
2022/04/03 10:27:02;;;;;;;3.10;1.40;;;10.80;99.90;;;;;;5005770;28;20258;-86
2022/04/03 10:29:36;;;;;;;1.17;0.90;;;10.90;99.90;;;;;;5007484;28;20268;-88
2022/04/03 10:32:03;;;;;;;1.80;1.00;;;10.90;99.90;;;;;;5007299;28;20284;-89
2022/04/03 10:34:44;;;;;;;2.10;1.10;;;10.70;99.90;;;;;;5008221;28;20606;-88
2022/04/03 10:37:29;;;;;;;2.87;1.20;;;10.60;99.90;;;;;;5016503;28;20332;-87
2022/04/03 10:40:04;;;;;;;1.30;1.03;;;10.70;99.90;;;;;;4997019;28;20257;-87
2022/04/03 10:42:31;;;;;;;1.30;1.00;;;10.70;99.90;;;;;;5009583;28;20209;-87
2022/04/03 10:45:11;;;;;;;1.40;1.00;;;10.70;99.90;;;;;;5016481;28;20203;-88
2022/04/03 10:47:38;;;;;;;1.93;1.10;;;10.90;99.90;;;;;;5011970;28;20209;-89
2022/04/03 10:50:06;;;;;;;1.30;0.87;;;10.90;99.90;;;;;;5023687;28;20275;-88
2022/04/03 10:52:42;;;;;;;2.13;1.00;;;10.80;99.90;;;;;;5018182;28;20228;-87
2022/04/03 10:55:19;;;;;;;2.23;0.80;;;10.80;99.90;;;;;;5027075;28;20210;-87
2022/04/03 10:57:48;;;;;;;3.17;1.00;;;10.70;99.90;;;;;;5025843;28;20241;-87
2022/04/03 11:00:16;;;;;;;1.77;1.00;;;10.70;99.90;;;;;;5014854;28;20202;-89
2022/04/03 11:02:51;;;;;;;2.20;1.23;;;10.70;99.90;;;;;;5026863;28;20216;-88
2022/04/03 11:05:21;;;;;;;1.53;1.00;;;10.70;99.90;;;;;;5009925;28;20280;-88
2022/04/03 11:08:14;;;;;;;1.57;1.10;;;10.70;99.90;;;;;;5014508;28;20617;-87
2022/04/03 11:10:52;;;;;;;0.80;0.80;;;11.00;99.90;;;;;;5001021;28;20667;-86
2022/04/03 11:13:31;;;;;;;1.63;0.77;;;11.20;99.90;;;;;;5004212;28;20575;-87
2022/04/03 11:16:15;;;;;;;1.03;0.80;;;11.30;99.90;;;;;;5008668;28;20209;-88
2022/04/03 11:18:42;;;;;;;1.47;0.80;;;11.40;99.90;;;;;;5014586;28;20265;-88
2022/04/03 11:21:21;;;;;;;3.90;1.60;;;11.70;99.90;;;;;;5019811;28;20198;-88
2022/04/03 11:24:12;;;;;;;1.07;0.80;;;11.70;99.90;;;;;;5019965;28;20229;-87
2022/04/03 11:26:40;;;;;;;1.27;0.93;;;11.60;99.90;;;;;;5004680;28;20198;-89
2022/04/03 11:29:10;;;;;;;1.37;0.93;;;11.00;99.90;;;;;;5012259;28;20265;-88
2022/04/03 11:31:40;;;;;;;2.07;1.50;;;10.40;99.90;;;;;;5023109;28;20221;-88
2022/04/03 11:34:12;;;;;;;3.07;1.20;;;9.50;99.90;;;;;;5017900;28;20292;-88
2022/04/03 11:36:42;;;;;;;2.00;1.80;;;8.90;99.90;;;;;;5014623;28;20605;-89
2022/04/03 11:39:11;;;;;;;1.10;1.10;;;8.40;99.90;;;;;;5014775;28;20726;-91
2022/04/03 11:41:51;;;;;;;1.63;1.10;;;8.10;99.90;;;;;;5019818;28;20202;-90
2022/04/03 11:44:29;;;;;;;1.63;1.17;;;7.90;99.90;;;;;;5013054;28;20264;-91
2022/04/03 11:50:11;;;;;;;1.80;1.20;;;7.70;99.90;;;;;;5019056;28;20198;-91
2022/04/03 11:52:40;;;;;;;1.20;1.07;;;8.00;99.90;;;;;;5023491;28;20227;-91
2022/04/03 11:55:10;;;;;;;1.40;1.30;;;8.10;99.90;;;;;;5022009;28;20639;-93
2022/04/03 11:57:43;;;;;;;1.17;1.07;;;8.40;99.90;;;;;;5016763;28;20230;-91
2022/04/03 12:00:12;;;;;;;1.23;1.13;;;8.80;99.90;;;;;;5010665;28;20281;-90
2022/04/03 12:02:42;;;;;;;1.00;0.97;;;9.10;99.90;;;;;;5023647;28;20234;-91
2022/04/03 12:05:22;;;;;;;1.73;1.17;;;9.30;99.90;;;;;;5025520;28;20202;-91
2022/04/03 12:07:51;;;;;;;2.60;1.40;;;9.50;99.90;;;;;;5023035;28;20258;-89
2022/04/03 12:10:26;;;;;;;2.10;1.40;;;9.60;99.90;;;;;;5024048;28;20205;-91
2022/04/03 12:12:58;;;;;;;3.00;1.50;;;9.90;99.90;;;;;;5017971;28;20207;-88
2022/04/03 12:15:32;;;;;;;2.30;1.47;;;10.20;99.90;;;;;;5015898;28;20246;-90
2022/04/03 12:18:25;;;;;;;3.13;1.30;;;10.20;99.90;;;;;;5017147;28;20286;-89
2022/04/03 12:20:56;;;;;;;1.40;1.30;;;10.30;99.90;;;;;;5012903;28;20201;-88
2022/04/03 12:23:27;;;;;;;1.80;1.30;;;10.50;99.90;;;;;;5014711;28;20226;-87
2022/04/03 12:25:59;;;;;;;1.67;1.30;;;10.60;99.90;;;;;;5012510;28;20198;-88
2022/04/03 12:28:26;;;;;;;1.77;1.30;;;10.80;99.90;;;;;;5005546;28;20213;-88
2022/04/03 12:30:59;;;;;;;1.50;1.30;;;10.90;99.90;;;;;;5006560;28;20210;-87
2022/04/03 12:33:26;;;;;;;5.13;1.83;;;10.90;99.90;;;;;;5007358;28;20626;-87
2022/04/03 12:35:53;;;;;;;2.97;1.57;;;10.80;99.90;;;;;;5006812;28;20202;-88
2022/04/03 12:38:31;;;;;;;1.57;1.20;;;10.70;99.90;;;;;;5005287;28;20242;-86
2022/04/03 12:41:00;;;;;;;2.10;1.80;;;10.60;99.90;;;;;;5001208;28;20263;-85
2022/04/03 12:43:43;;;;;;;1.53;1.37;;;10.50;99.90;;;;;;5004684;28;20276;-86
2022/04/03 12:46:11;;;;;;;3.23;1.73;;;10.20;99.90;;;;;;5003429;28;20541;-86
2022/04/03 12:48:42;;;;;;;1.63;1.50;;;9.90;99.90;;;;;;5000880;28;20632;-86
2022/04/03 12:51:11;;;;;;;3.57;1.90;;;9.70;99.90;;;;;;4998526;28;20212;-87
2022/04/03 12:53:49;;;;;;;2.17;1.73;;;9.50;99.90;;;;;;5001923;28;20664;-86
2022/04/03 12:56:16;;;;;;;3.73;1.50;;;9.50;99.90;;;;;;5006272;28;20362;-86
2022/04/03 12:58:49;;;;;;;2.00;1.40;;;9.40;99.90;;;;;;5002866;28;20230;-87
2022/04/03 13:01:18;;;;;;;1.60;1.50;;;9.40;99.90;;;;;;4997261;28;20206;-86
2022/04/03 13:03:47;;;;;;;1.80;1.70;;;9.40;99.90;;;;;;4999256;28;20211;-85
2022/04/03 13:06:33;;;;;;;2.03;1.50;;;9.50;99.90;;;;;;4997881;28;20574;-84
2022/04/03 13:09:17;;;;;;;2.17;1.57;;;10.00;99.90;;;;;;4991737;28;20656;-85
2022/04/03 13:11:52;;;;;;;1.50;1.23;;;9.90;99.90;;;;;;5004566;28;20209;-85
2022/04/03 13:14:19;;;;;;;1.87;1.23;;;10.20;99.90;;;;;;5002595;28;20309;-85